ADDS METAR Data INFO
IDs: Format: Raw Decoded Include TAF

Data at: 1747 UTC 15 Dec 2017

KBOI 151740Z 16007KT 2 1/2SM R10R/5500VP6000FT BR BKN010 OVC014 M03/M06 A3032 RMK AO2 SNB10E31 P0000 T10331056
KBOI 151728Z 17008KT 3SM -SN BR OVC010 M03/M06 A3033 RMK AO2 SNB10 P0000 T10331056
KBOI 151725Z 15009KT 1 1/2SM R10R/4500VP6000FT -SN BR OVC010 M03/M06 A3033 RMK AO2 SNB10 P0000 T10331056
KBOI 151721Z 15009KT 3/4SM R10R/3500VP6000FT -SN BR OVC010 M03/M05 A3032 RMK AO2 SNB10 P0000 T10331050
KBOI 151713Z 14009KT 1SM R10R/4500VP6000FT -SN BR OVC010 M03/M06 A3033 RMK AO2 SNB10 CIG 008V013 P0000 T10331056
KBOI 151711Z 14009KT 1 3/4SM -SN BR OVC009 M03/M06 A3033 RMK AO2 VIS 1/2V5 SNB10 CIG 009V013 P0000 T10331056
KBOI 151653Z 14009KT 10SM OVC009 M03/M06 A3033 RMK AO2 SLP297 T10331061
KBOI 151603Z 12004KT 10SM OVC009 M03/M06 A3035 RMK AO2 T10331056
KBOI 151553Z 10006KT 10SM OVC011 M03/M06 A3035 RMK AO2 SLP303 T10331056
KBOI 151453Z 13009KT 10SM OVC007 M03/M05 A3034 RMK AO2 SLP301 T10331050 56017
KBOI 151353Z 13007KT 9SM OVC007 M03/M05 A3036 RMK AO2 SLP307 T10331050
KBOI 151253Z 13011KT 9SM OVC006 M03/M05 A3035 RMK AO2 SLP303 T10331050
KBOI 151153Z 14007KT 6SM BR OVC005 M03/M04 A3040 RMK AO2 SLP320 60000 T10331044 11028 21033 55012
KBOI 151053Z 14007KT 8SM OVC007 M03/M05 A3039 RMK AO2 SLP319 T10331050
KBOI 150953Z 18008KT 6SM BR OVC005 M03/M04 A3043 RMK AO2 SNE0855 SLP333 P0000 T10331044
KBOI 150938Z 15004KT 8SM OVC005 M03/M05 A3043 RMK AO2 SNE0855 CIG 004V008 P0000 T10331050
KBOI 150927Z 15006KT 7SM OVC004 M03/M05 A3043 RMK AO2 SNE0855 P0000 T10331050
KBOI 150853Z 19006KT 4SM -SN BR OVC005 M03/M04 A3044 RMK AO2 SNB44 SLP335 P0000 60000 T10331044 56007
KBOI 150753Z 14005KT 7SM OVC006 M03/M05 A3044 RMK AO2 SLP336 T10331050
KBOI 150653Z AUTO 16005KT 8SM OVC007 M03/M04 A3045 RMK AO2 SLP338 T10281044 410281039
KBOI 150553Z 14005KT 9SM OVC007 M03/M04 A3046 RMK AO2 SLP342 T10281044 11028 21028 56010
KBOI 150453Z 13005KT 9SM OVC007 M03/M04 A3046 RMK AO2 SLP344 T10281044
KBOI 150353Z 13004KT 9SM OVC007 M03/M05 A3048 RMK AO2 SLP349 T10281050
KBOI 150253Z 15004KT 10SM OVC008 M03/M05 A3049 RMK AO2 SLP354 T10281050 55000
KBOI 150153Z 13006KT 10SM OVC008 M03/M05 A3048 RMK AO2 SLP350 T10281050
KBOI 150053Z 00000KT 10SM OVC009 M03/M05 A3049 RMK AO2 SLP352 T10281050
KBOI 150041Z 00000KT 10SM OVC009 M03/M05 A3049 RMK AO2 T10281050
KBOI 142353Z 11004KT 10SM OVC010 M03/M05 A3049 RMK AO2 SLP354 60000 T10281050 11028 21039 58012
KBOI 142253Z 16004KT 10SM OVC010 M03/M06 A3051 RMK AO2 SLP359 T10281056
KBOI 142153Z 00000KT 10SM OVC010 M03/M06 A3052 RMK AO2 SLP364 T10281056
KBOI 142053Z 19003KT 10SM OVC010 M03/M06 A3053 RMK AO2 SLP367 60000 T10331061 58016
KBOI 141953Z 14006KT 8SM OVC010 M03/M06 A3056 RMK AO2 SNB42E50 SLP378 P0000 T10281056
KBOI 141853Z 15006KT 9SM OVC010 M03/M06 A3057 RMK AO2 SLP382 T10331061
KBOI 141800Z 16008KT 3SM R10R/3500VP6000FT BR OVC010 M03/M06 A3058 RMK AO2 CIG 009V014 T10331056
KBOI 141753Z 17008KT 2SM BR OVC009 M03/M06 A3058 RMK AO2 SNE40 SLP384 P0000 60000 T10331056 11033 21039 51009
KBOI 141703Z 16008KT 2SM -SN BR OVC008 M04/M06 A3057 RMK AO2 P0000 T10391061
KBOI 141700Z 16009KT 1 1/2SM R10R/6000VP6000FT -SN BR OVC010 M04/M06 A3057 RMK AO2 P0000 T10391061
KBOI 141653Z 17008KT 2SM R10R/4000VP6000FT -SN BR OVC008 M04/M06 A3057 RMK AO2 SNB47 SLP381 P0000 T10391056
KBOI 141553Z 18009KT 2SM BR OVC009 M04/M06 A3056 RMK AO2 SLP380 T10391056
KBOI 141453Z AUTO 18005KT 3SM BR OVC008 M04/M06 A3055 RMK AO2 SNE1359 SLP375 P0000 60000 T10391056 53006
KBOI 141353Z 16004KT 3SM -SN BR OVC009 M04/M06 A3054 RMK AO2 SNB44 SLP371 P0000 T10391056
KBOI 141351Z 16004KT 3SM -SN BR OVC009 M04/M06 A3054 RMK AO2 SNB44 P0000
KBOI 141349Z 16005KT 1 3/4SM -SN BR OVC009 M04/M06 A3053 RMK AO2 VIS 1V5 SNB44 CIG 008V012 P0000
KBOI 141253Z 15007KT 6SM BR OVC008 M04/M06 A3053 RMK AO2 SLP369 T10391056
KBOI 141153Z 14011KT 6SM BR OVC008 M04/M06 A3053 RMK AO2 SLP369 T10391061 11033 21039 51011
KBOI 141053Z 16010KT 6SM BR OVC008 M04/M06 A3051 RMK AO2 SLP363 T10391056
KBOI 140953Z 16010KT 7SM OVC009 M04/M06 A3051 RMK AO2 SLP364 T10391061
KBOI 140853Z 15007KT 8SM OVC009 M04/M06 A3049 RMK AO2 SLP356 T10391056 53007
KBOI 140753Z 15013KT 6SM BR OVC010 M03/M06 A3047 RMK AO2 SLP346 T10331056
KBOI 140750Z 15012KT 6SM BR OVC010 M03/M06 A3047 RMK AO2
KBOI 140653Z 15012KT 7SM OVC009 M03/M05 A3047 RMK AO2 SLP348 T10331050 410331056
KBOI 140553Z 14005KT 7SM OVC006 M03/M05 A3047 RMK AO2 SLP347 T10331050 11033 21044 53020